Time;durP1;ratioP1;P1;durP2;ratioP2;P2;SDS_P1;SDS_P2;PMS_P1;PMS_P2;Temp;Humidity;BMP_temperature;BMP_pressure;BME280_temperature;BME280_humidity;BME280_pressure;Samples;Min_cycle;Max_cycle;Signal;HPM_P1;HPM_P2
2023/12/02 00:00:54;;;;;;;19.33;10.80;;;;;;;0.26;100.00;146312.94;5005222;28;20223;-56
2023/12/02 00:03:21;;;;;;;19.63;10.90;;;;;;;0.32;100.00;146326.50;5002982;28;20216;-56
2023/12/02 00:05:50;;;;;;;20.40;11.57;;;;;;;0.32;100.00;146326.50;5007368;28;20224;-56
2023/12/02 00:08:17;;;;;;;22.73;12.27;;;;;;;0.30;100.00;146321.56;5004770;28;20581;-56
2023/12/02 00:10:43;;;;;;;37.50;17.67;;;;;;;0.22;100.00;146301.78;5007427;28;20237;-56
2023/12/02 00:13:11;;;;;;;37.43;17.53;;;;;;;0.17;100.00;146290.69;5006522;28;20372;-56
2023/12/02 00:15:38;;;;;;;31.93;15.67;;;;;;;0.12;100.00;146279.53;5003413;28;20238;-56
2023/12/02 00:18:05;;;;;;;34.67;20.05;;;;;;;0.19;100.00;146294.34;5005206;28;20451;-56
2023/12/02 00:20:31;;;;;;;22.47;13.37;;;;;;;0.27;100.00;146314.16;5005109;28;20225;-57
2023/12/02 00:22:58;;;;;;;31.03;15.53;;;;;;;0.13;100.00;146280.78;5007002;28;20240;-55
2023/12/02 00:25:24;;;;;;;22.00;11.33;;;;;;;0.22;100.00;146301.78;5002101;28;20217;-55
2023/12/02 00:27:51;;;;;;;23.43;13.03;;;;;;;0.11;100.00;146277.06;5005418;28;20248;-56
2023/12/02 00:30:19;;;;;;;21.93;11.80;;;;;;;0.09;100.00;146270.88;5002089;28;20694;-54
2023/12/02 00:32:46;;;;;;;19.07;10.47;;;;;;;0.11;100.00;146275.84;5004321;28;20232;-53
2023/12/02 00:35:13;;;;;;;19.27;10.07;;;;;;;-0.07;100.00;146232.59;5002115;28;20224;-56
2023/12/02 00:37:39;;;;;;;19.50;11.13;;;;;;;-0.03;100.00;146242.47;5005176;28;20235;-55
2023/12/02 00:40:08;;;;;;;18.57;10.77;;;;;;;-0.05;100.00;146238.75;5004804;28;20236;-56
2023/12/02 00:42:35;;;;;;;21.27;11.17;;;;;;;-0.08;100.00;146231.34;5000891;28;20591;-54
2023/12/02 00:45:01;;;;;;;21.07;10.70;;;;;;;-0.11;100.00;146223.91;5004608;28;20250;-55
2023/12/02 00:47:29;;;;;;;19.93;10.90;;;;;;;-0.09;100.00;146228.88;4994860;28;20224;-56
2023/12/02 00:49:56;;;;;;;17.47;10.33;;;;;;;-0.11;100.00;146223.91;5008485;28;20251;-56
2023/12/02 00:52:22;;;;;;;19.33;10.53;;;;;;;-0.06;100.00;146235.06;5005140;28;20713;-55
2023/12/02 00:54:49;;;;;;;19.20;10.67;;;;;;;-0.17;100.00;146210.34;5008736;28;20243;-56
2023/12/02 00:57:16;;;;;;;20.53;10.70;;;;;;;-0.18;100.00;146206.63;5006179;28;20247;-55
2023/12/02 00:59:42;;;;;;;21.17;10.37;;;;;;;-0.18;100.00;146207.88;5008874;28;20988;-57
2023/12/02 01:02:09;;;;;;;21.67;10.87;;;;;;;-0.28;100.00;146181.88;5006840;28;20242;-57
2023/12/02 01:04:37;;;;;;;20.27;10.67;;;;;;;-0.26;100.00;146188.09;5005196;28;20236;-56
2023/12/02 01:07:04;;;;;;;17.00;9.43;;;;;;;-0.36;100.00;146164.59;5008802;28;20253;-57
2023/12/02 01:09:30;;;;;;;21.97;11.07;;;;;;;-0.32;100.00;146174.47;5006099;28;20324;-56
2023/12/02 01:11:57;;;;;;;22.77;11.17;;;;;;;-0.25;100.00;146190.56;5007289;28;20329;-57
2023/12/02 01:14:25;;;;;;;23.47;11.47;;;;;;;-0.23;100.00;146194.25;5004199;28;20235;-57
2023/12/02 01:16:52;;;;;;;20.77;11.37;;;;;;;-0.37;100.00;146160.91;5008420;28;20233;-56
2023/12/02 01:19:18;;;;;;;20.50;11.40;;;;;;;-0.45;100.00;146143.59;5005842;28;20231;-56
2023/12/02 01:21:46;;;;;;;18.03;9.13;;;;;;;-0.53;100.00;146123.84;5008175;28;21015;-56
2023/12/02 01:24:14;;;;;;;22.70;11.97;;;;;;;-0.48;100.00;146136.19;5007834;28;20236;-57
2023/12/02 01:26:41;;;;;;;20.53;11.27;;;;;;;-0.49;100.00;146132.47;5005924;28;20249;-56
2023/12/02 01:29:08;;;;;;;19.60;10.70;;;;;;;-0.55;100.00;146118.88;5007678;28;20243;-54
2023/12/02 01:31:34;;;;;;;22.63;11.77;;;;;;;-0.54;100.00;146121.34;5005240;28;20292;-56
2023/12/02 01:34:01;;;;;;;22.83;11.60;;;;;;;-0.54;100.00;146120.16;5006391;28;20242;-54
2023/12/02 01:36:27;;;;;;;22.83;11.83;;;;;;;-0.61;100.00;146105.31;5005225;28;20212;-56
2023/12/02 01:38:55;;;;;;;23.17;11.73;;;;;;;-0.65;100.00;146095.44;5007764;28;20684;-54
2023/12/02 01:41:22;;;;;;;22.97;12.20;;;;;;;-0.63;100.00;146100.38;5004646;28;20215;-56
2023/12/02 01:43:48;;;;;;;22.27;10.77;;;;;;;-0.66;100.00;146091.72;4990768;28;20239;-56
2023/12/02 01:46:19;;;;;;;19.60;11.77;;;;;;;-0.70;100.00;146081.81;5002589;28;20224;-56
2023/12/02 01:48:46;;;;;;;23.03;11.90;;;;;;;-0.61;100.00;146104.06;4995358;28;20239;-54
2023/12/02 01:51:13;;;;;;;22.33;11.60;;;;;;;-0.70;100.00;146083.09;4883712;28;20279;-56
2023/12/02 01:53:39;;;;;;;23.27;12.07;;;;;;;-0.69;100.00;146084.28;4897296;28;20241;-54
2023/12/02 01:56:12;;;;;;;22.33;11.33;;;;;;;-0.67;100.00;146089.22;4989356;28;20242;-56
2023/12/02 01:59:04;;;;;;;20.70;11.93;;;;;;;-0.70;100.00;146081.81;4897542;28;20277;-56
2023/12/02 02:01:31;;;;;;;21.57;11.93;;;;;;;-0.72;100.00;146076.88;4905951;28;20696;-56
2023/12/02 02:03:59;;;;;;;21.93;11.83;;;;;;;-0.68;100.00;146088.03;4995659;28;20236;-55
2023/12/02 02:06:25;;;;;;;24.37;12.00;;;;;;;-0.65;100.00;146094.19;5004752;28;20231;-56
2023/12/02 02:08:52;;;;;;;21.80;11.70;;;;;;;-0.63;100.00;146100.38;5007349;28;20224;-56
2023/12/02 02:11:20;;;;;;;22.93;11.33;;;;;;;-0.58;100.00;146111.47;5003297;28;20213;-54
2023/12/02 02:13:47;;;;;;;21.37;11.33;;;;;;;-0.81;100.00;146057.09;5007181;28;20231;-56
2023/12/02 02:16:13;;;;;;;22.10;11.70;;;;;;;-0.72;100.00;146078.13;5007342;28;20227;-54
2023/12/02 02:18:40;;;;;;;24.40;12.93;;;;;;;-0.81;100.00;146057.09;5004262;28;20227;-53
2023/12/02 02:21:07;;;;;;;21.67;11.83;;;;;;;-0.82;100.00;146053.44;5007043;28;20240;-55
2023/12/02 02:23:35;;;;;;;22.90;11.53;;;;;;;-0.92;100.00;146029.94;5004008;28;20212;-56
2023/12/02 02:26:01;;;;;;;24.80;12.90;;;;;;;-0.93;100.00;146028.72;5006960;28;20698;-54
2023/12/02 02:28:29;;;;;;;21.93;12.10;;;;;;;-0.93;100.00;146027.47;5004228;28;20351;-56
2023/12/02 02:30:55;;;;;;;15.80;8.70;;;;;;;-1.06;100.00;145997.81;5006695;28;20697;-56
2023/12/02 02:33:22;;;;;;;22.50;12.27;;;;;;;-1.10;100.00;145987.97;5004082;28;20236;-56
2023/12/02 02:35:49;;;;;;;23.63;12.47;;;;;;;-1.04;100.00;146001.53;5006701;28;20232;-54
2023/12/02 02:38:15;;;;;;;23.00;12.07;;;;;;;-1.04;100.00;146001.53;5003999;28;20235;-56
2023/12/02 02:40:43;;;;;;;22.87;12.30;;;;;;;-1.10;100.00;145987.97;5006414;28;20236;-56
2023/12/02 02:43:10;;;;;;;20.70;11.17;;;;;;;-1.07;100.00;145995.38;5006086;28;20243;-54
2023/12/02 02:45:37;;;;;;;24.00;11.90;;;;;;;-1.13;100.00;145979.31;5003818;28;20328;-56
2023/12/02 02:48:04;;;;;;;23.73;12.47;;;;;;;-1.11;100.00;145985.50;5006582;28;20232;-56
2023/12/02 02:50:31;;;;;;;21.30;11.47;;;;;;;-1.12;100.00;145983.03;4992544;28;20235;-56
2023/12/02 02:52:57;;;;;;;22.00;11.53;;;;;;;-1.11;100.00;145984.25;5004517;28;20232;-56
2023/12/02 02:55:24;;;;;;;19.97;10.93;;;;;;;-1.14;100.00;145976.84;5003926;28;20239;-53
2023/12/02 02:57:52;;;;;;;19.60;11.30;;;;;;;-1.10;100.00;145987.97;5005870;28;20320;-56
2023/12/02 03:00:19;;;;;;;18.50;10.97;;;;;;;-1.04;100.00;146002.75;5004403;28;20223;-54
2023/12/02 03:02:46;;;;;;;11.87;6.33;;;;;;;-1.11;100.00;145985.50;5006300;28;20236;-54
2023/12/02 03:05:12;;;;;;;14.87;6.97;;;;;;;-1.22;100.00;145958.34;5004042;28;20219;-54
2023/12/02 03:07:39;;;;;;;18.27;9.70;;;;;;;-1.25;100.00;145952.13;5002623;28;20232;-56
2023/12/02 03:10:08;;;;;;;22.17;11.87;;;;;;;-1.19;100.00;145966.97;5006057;28;20622;-55
2023/12/02 03:12:34;;;;;;;20.87;11.43;;;;;;;-1.14;100.00;145976.84;5002001;28;23513;-56
2023/12/02 03:15:03;;;;;;;19.63;10.10;;;;;;;-1.21;100.00;145962.03;5006050;28;20228;-57
2023/12/02 03:17:30;;;;;;;23.70;14.98;;;;;;;-1.23;100.00;145957.06;5002120;28;20446;-57
2023/12/02 03:19:57;;;;;;;20.43;11.83;;;;;;;-1.20;100.00;145964.50;5004414;28;20707;-56
2023/12/02 03:22:23;;;;;;;22.33;12.57;;;;;;;-1.20;100.00;145964.50;5003089;28;20888;-57
2023/12/02 03:24:50;;;;;;;19.33;10.83;;;;;;;-1.21;100.00;145960.81;5005369;28;20236;-55
2023/12/02 03:27:16;;;;;;;22.17;11.70;;;;;;;-1.29;100.00;145942.25;5002578;28;20246;-56
2023/12/02 03:29:43;;;;;;;19.57;10.90;;;;;;;-1.32;100.00;145933.63;5005249;28;20236;-56
2023/12/02 03:32:11;;;;;;;21.80;11.47;;;;;;;-1.40;100.00;145916.34;5005685;28;20230;-57
2023/12/02 03:34:37;;;;;;;22.07;11.13;;;;;;;-1.46;100.00;145900.28;5003105;28;20239;-56
2023/12/02 03:37:04;;;;;;;23.37;12.17;;;;;;;-1.45;100.00;145904.00;5005660;28;20231;-55
2023/12/02 03:39:31;;;;;;;20.57;11.10;;;;;;;-1.48;100.00;145897.81;5002761;28;20230;-55
2023/12/02 03:41:58;;;;;;;22.87;11.27;;;;;;;-1.47;100.00;145899.06;5005419;28;20236;-56
2023/12/02 03:44:25;;;;;;;20.87;10.83;;;;;;;-1.47;100.00;145899.06;5001904;28;20220;-56
2023/12/02 03:46:51;;;;;;;19.83;10.63;;;;;;;-1.38;100.00;145921.28;5005615;28;20286;-56
2023/12/02 03:49:19;;;;;;;22.90;11.27;;;;;;;-1.37;100.00;145922.50;5003177;28;20237;-56
2023/12/02 03:51:46;;;;;;;18.57;10.27;;;;;;;-1.45;100.00;145904.00;5005147;28;20235;-56
2023/12/02 03:54:12;;;;;;;20.00;10.90;;;;;;;-1.45;100.00;145902.75;5005529;28;20599;-56
2023/12/02 03:56:39;;;;;;;19.30;10.43;;;;;;;-1.38;100.00;145921.28;5002756;28;20228;-54
2023/12/02 03:59:06;;;;;;;17.40;10.30;;;;;;;-1.32;100.00;145933.63;5005018;28;20310;-56
2023/12/02 04:01:33;;;;;;;19.53;11.10;;;;;;;-1.21;100.00;145960.81;5002108;28;20659;-55
2023/12/02 04:03:59;;;;;;;20.43;10.47;;;;;;;-1.17;100.00;145970.69;5005346;28;20220;-56
2023/12/02 04:06:27;;;;;;;20.27;10.40;;;;;;;-1.18;100.00;145968.22;5002688;28;20227;-54
2023/12/02 04:08:54;;;;;;;18.47;10.37;;;;;;;-1.18;100.00;145968.22;5005126;28;20235;-56
2023/12/02 04:11:20;;;;;;;17.90;10.00;;;;;;;-1.12;100.00;145983.03;5001400;28;20247;-55
2023/12/02 04:13:47;;;;;;;19.03;9.80;;;;;;;-1.12;100.00;145983.03;5005347;28;20231;-56
2023/12/02 04:16:14;;;;;;;20.60;10.40;;;;;;;-1.06;100.00;145997.81;5005561;28;20779;-55
2023/12/02 04:18:40;;;;;;;19.63;10.20;;;;;;;-1.07;100.00;145995.38;5003099;28;20235;-54
2023/12/02 04:21:08;;;;;;;16.80;9.67;;;;;;;-1.06;100.00;145996.59;5005007;28;20238;-55
2023/12/02 04:23:36;;;;;;;19.67;11.23;;;;;;;-1.16;100.00;145973.16;5002109;28;20216;-57
2023/12/02 04:26:02;;;;;;;18.03;10.37;;;;;;;-1.11;100.00;145984.25;5003184;28;20223;-55
2023/12/02 04:28:29;;;;;;;21.10;10.23;;;;;;;-1.20;100.00;145963.28;4999091;28;20578;-57
2023/12/02 04:33:23;;;;;;;20.70;11.03;;;;;;;-1.31;100.00;145937.31;4970780;28;20216;-63
2023/12/02 04:35:50;;;;;;;19.77;10.63;;;;;;;-1.35;100.00;145928.69;4985329;28;20240;-63
2023/12/02 04:38:17;;;;;;;18.43;10.47;;;;;;;-1.46;100.00;145900.28;4970735;28;20663;-63
2023/12/02 04:40:45;;;;;;;12.03;7.40;;;;;;;-1.63;100.00;145862.00;4985404;28;20322;-63
2023/12/02 04:43:12;;;;;;;22.27;12.03;;;;;;;-1.80;100.00;145821.31;5004050;28;20227;-64
2023/12/02 04:45:39;;;;;;;21.67;11.53;;;;;;;-1.70;100.00;145844.72;5001268;28;20318;-63
2023/12/02 04:48:06;;;;;;;22.33;11.17;;;;;;;-1.70;100.00;145844.72;5004454;28;20250;-63
2023/12/02 04:50:32;;;;;;;22.67;11.93;;;;;;;-1.77;100.00;145827.44;5000773;28;20262;-63
2023/12/02 04:52:59;;;;;;;21.70;11.63;;;;;;;-1.77;100.00;145827.44;5003984;28;20234;-63
2023/12/02 04:55:25;;;;;;;23.37;12.23;;;;;;;-1.74;100.00;145834.84;5001095;28;20227;-63
2023/12/02 04:57:53;;;;;;;22.87;11.27;;;;;;;-1.86;100.00;145805.22;5003566;28;20242;-63
2023/12/02 05:00:21;;;;;;;21.90;11.40;;;;;;;-1.77;100.00;145826.25;5000767;28;20745;-63
2023/12/02 05:02:47;;;;;;;20.77;10.30;;;;;;;-1.88;100.00;145800.28;5004207;28;20243;-63
2023/12/02 05:05:14;;;;;;;22.73;11.37;;;;;;;-1.85;100.00;145807.69;5003657;28;20227;-63
2023/12/02 05:07:41;;;;;;;27.07;12.23;;;;;;;-1.85;100.00;145807.69;5001187;28;20234;-63
2023/12/02 05:10:08;;;;;;;22.23;10.73;;;;;;;-1.83;100.00;145812.63;5004107;28;20246;-63
2023/12/02 05:12:35;;;;;;;21.03;11.33;;;;;;;-1.84;100.00;145810.16;5001811;28;20346;-63
2023/12/02 05:15:04;;;;;;;20.00;11.00;;;;;;;-1.84;100.00;145810.16;5002836;28;20225;-63
2023/12/02 05:17:30;;;;;;;23.30;11.43;;;;;;;-1.93;100.00;145789.22;5000769;28;20227;-63
2023/12/02 05:19:58;;;;;;;20.93;11.67;;;;;;;-1.80;100.00;145821.31;4993271;28;20562;-63
2023/12/02 05:22:24;;;;;;;24.13;12.50;;;;;;;-1.85;100.00;145807.69;5000783;28;20580;-63
2023/12/02 05:24:51;;;;;;;22.23;11.03;;;;;;;-1.84;100.00;145811.44;5002793;28;20736;-63
2023/12/02 05:27:17;;;;;;;22.63;11.37;;;;;;;-1.72;100.00;145838.59;5000389;28;20227;-63
2023/12/02 05:29:44;;;;;;;26.13;12.20;;;;;;;-1.84;100.00;145811.44;5003874;28;20251;-63
2023/12/02 05:32:12;;;;;;;21.97;11.97;;;;;;;-1.95;100.00;145784.28;4978535;28;20232;-63
2023/12/02 05:34:39;;;;;;;22.60;11.87;;;;;;;-1.91;100.00;145794.13;5001469;28;20595;-63
2023/12/02 05:37:05;;;;;;;23.87;11.67;;;;;;;-1.99;100.00;145774.41;5005776;28;20237;-63
2023/12/02 05:39:34;;;;;;;25.93;12.87;;;;;;;-2.07;100.00;145755.84;5003618;28;20230;-63
2023/12/02 05:42:01;;;;;;;26.07;13.03;;;;;;;-2.04;100.00;145762.06;5005984;28;21022;-63
2023/12/02 05:44:28;;;;;;;23.87;11.13;;;;;;;-2.00;100.00;145771.94;5002898;28;21375;-63
2023/12/02 05:46:54;;;;;;;25.90;13.47;;;;;;;-1.91;100.00;145794.13;5006056;28;20215;-63
2023/12/02 05:49:22;;;;;;;25.40;12.57;;;;;;;-2.01;100.00;145770.66;5003373;28;20219;-63
2023/12/02 05:51:49;;;;;;;25.87;13.13;;;;;;;-1.95;100.00;145784.28;5006521;28;20226;-63
2023/12/02 05:54:15;;;;;;;26.23;12.83;;;;;;;-1.95;100.00;145785.47;5006081;28;20220;-63
2023/12/02 05:56:42;;;;;;;25.30;13.30;;;;;;;-1.93;100.00;145789.22;5002831;28;20236;-64
2023/12/02 05:59:08;;;;;;;25.47;13.67;;;;;;;-2.06;100.00;145757.13;5005104;28;20705;-64
2023/12/02 06:01:36;;;;;;;26.53;13.63;;;;;;;-2.03;100.00;145765.72;5002612;28;20227;-64
2023/12/02 06:04:03;;;;;;;25.67;14.40;;;;;;;-2.03;100.00;145765.72;5006142;28;20239;-64
2023/12/02 06:06:31;;;;;;;23.17;12.33;;;;;;;-2.16;100.00;145734.91;5004207;28;20219;-64
2023/12/02 06:08:58;;;;;;;28.30;13.60;;;;;;;-2.13;100.00;145741.09;5006941;28;20238;-64
2023/12/02 06:11:24;;;;;;;24.53;12.67;;;;;;;-2.08;100.00;145753.38;5003574;28;20238;-64
2023/12/02 06:13:51;;;;;;;23.00;12.37;;;;;;;-2.10;100.00;145748.44;5006427;28;20238;-64
2023/12/02 06:16:17;;;;;;;23.27;12.67;;;;;;;-2.19;100.00;145726.28;5004453;28;20228;-64
2023/12/02 06:18:44;;;;;;;23.57;12.37;;;;;;;-2.13;100.00;145742.31;5007032;28;20223;-64
2023/12/02 06:21:12;;;;;;;24.33;12.57;;;;;;;-2.21;100.00;145721.34;5006156;28;20599;-64
2023/12/02 06:23:40;;;;;;;24.47;11.40;;;;;;;-2.28;100.00;145705.28;5002697;28;20235;-63
2023/12/02 06:26:07;;;;;;;22.90;12.47;;;;;;;-2.21;100.00;145721.34;5006506;28;20261;-63
2023/12/02 06:28:34;;;;;;;22.40;11.53;;;;;;;-2.27;100.00;145707.75;4984993;28;20224;-63
2023/12/02 06:31:01;;;;;;;24.73;12.23;;;;;;;-2.28;100.00;145706.53;5005297;28;20236;-63
2023/12/02 06:33:27;;;;;;;26.47;10.73;;;;;;;-2.38;100.00;145681.84;5003759;28;20227;-63
2023/12/02 06:35:54;;;;;;;23.13;12.00;;;;;;;-2.29;100.00;145702.81;5005918;28;20674;-63
2023/12/02 06:38:22;;;;;;;24.40;10.77;;;;;;;-2.31;100.00;145697.88;5002781;28;20231;-63
2023/12/02 06:40:49;;;;;;;25.93;13.00;;;;;;;-2.32;100.00;145695.41;5005651;28;20223;-63
2023/12/02 06:43:16;;;;;;;20.43;11.33;;;;;;;-2.34;100.00;145690.47;5006262;28;20706;-63
2023/12/02 06:45:43;;;;;;;19.23;9.63;;;;;;;-2.38;100.00;145681.84;5003417;28;20230;-63
2023/12/02 06:48:09;;;;;;;21.50;11.30;;;;;;;-2.40;100.00;145678.13;5005643;28;20236;-63
2023/12/02 06:50:36;;;;;;;19.27;10.10;;;;;;;-2.34;100.00;145690.47;5002922;28;20219;-63
2023/12/02 06:53:02;;;;;;;22.23;10.77;;;;;;;-2.29;100.00;145702.81;5005262;28;20243;-63
2023/12/02 06:55:31;;;;;;;17.10;10.27;;;;;;;-2.40;100.00;145676.91;5003208;28;20602;-63
2023/12/02 06:57:59;;;;;;;18.67;10.60;;;;;;;-2.32;100.00;145696.66;5005013;28;20230;-63
2023/12/02 07:00:26;;;;;;;19.43;9.93;;;;;;;-2.36;100.00;145686.78;4996844;28;20216;-63
2023/12/02 07:02:53;;;;;;;16.40;9.57;;;;;;;-2.35;100.00;145689.25;5003660;28;20243;-63
2023/12/02 07:05:19;;;;;;;19.97;10.40;;;;;;;-2.35;100.00;145689.25;5002901;28;20230;-64
2023/12/02 07:07:46;;;;;;;18.07;9.53;;;;;;;-2.40;100.00;145676.91;5005588;28;20234;-64
2023/12/02 07:10:14;;;;;;;17.17;8.77;;;;;;;-2.40;100.00;145676.91;5005302;28;20593;-64
2023/12/02 07:12:40;;;;;;;17.07;9.37;;;;;;;-2.40;100.00;145678.13;5003268;28;20251;-64
2023/12/02 07:15:09;;;;;;;20.90;9.07;;;;;;;-2.32;100.00;145696.66;5005432;28;20220;-64
2023/12/02 07:17:36;;;;;;;17.37;9.67;;;;;;;-2.38;100.00;145683.06;5003441;28;20552;-64
2023/12/02 07:20:03;;;;;;;17.97;9.37;;;;;;;-2.38;100.00;145681.84;5006338;28;20560;-64
2023/12/02 07:22:30;;;;;;;17.70;9.17;;;;;;;-2.37;100.00;145684.31;5002425;28;20232;-64
2023/12/02 07:24:57;;;;;;;16.27;8.90;;;;;;;-2.36;100.00;145686.78;5005858;28;20718;-64
2023/12/02 07:27:24;;;;;;;12.80;7.20;;;;;;;-2.42;100.00;145673.19;5002851;28;20235;-63
2023/12/02 07:29:51;;;;;;;18.47;9.47;;;;;;;-2.40;100.00;145678.13;5005869;28;20564;-63
2023/12/02 07:32:18;;;;;;;18.33;8.83;;;;;;;-2.44;100.00;145667.06;5005375;28;20228;-63
2023/12/02 07:34:45;;;;;;;16.70;8.87;;;;;;;-2.39;100.00;145679.41;5000295;28;20254;-64
2023/12/02 07:37:12;;;;;;;18.67;9.57;;;;;;;-2.35;100.00;145689.25;5005154;28;20239;-64
2023/12/02 07:39:38;;;;;;;18.80;9.60;;;;;;;-2.32;100.00;145695.41;4985257;28;20234;-64
2023/12/02 07:42:05;;;;;;;16.47;9.03;;;;;;;-2.36;100.00;145686.78;4999783;28;21040;-64
2023/12/02 07:44:32;;;;;;;16.47;9.63;;;;;;;-2.28;100.00;145705.28;5000206;28;20679;-63
2023/12/02 07:46:59;;;;;;;16.67;9.20;;;;;;;-2.32;100.00;145695.41;5005184;28;20823;-63
2023/12/02 07:49:27;;;;;;;15.97;9.03;;;;;;;-2.44;100.00;145668.25;5002219;28;20730;-63
2023/12/02 07:51:53;;;;;;;17.27;9.53;;;;;;;-2.40;100.00;145676.91;5005009;28;20718;-65
2023/12/02 07:54:20;;;;;;;11.17;7.23;;;;;;;-2.51;100.00;145651.00;5002130;28;20230;-62
2023/12/02 07:56:47;;;;;;;17.13;9.03;;;;;;;-2.47;100.00;145659.66;5004459;28;20235;-64
2023/12/02 07:59:14;;;;;;;19.00;10.17;;;;;;;-2.42;100.00;145672.00;5004949;28;20242;-63
2023/12/02 08:01:41;;;;;;;21.17;10.85;;;;;;;-2.41;100.00;145675.66;5001084;28;20446;-63
2023/12/02 08:04:07;;;;;;;17.77;9.77;;;;;;;-2.34;100.00;145691.72;5004056;28;20239;-63
2023/12/02 08:06:36;;;;;;;20.03;9.93;;;;;;;-2.28;100.00;145706.53;5001602;28;20224;-63
2023/12/02 08:09:03;;;;;;;20.90;9.90;;;;;;;-2.35;100.00;145688.00;5004936;28;20240;-64
2023/12/02 08:11:29;;;;;;;19.53;9.37;;;;;;;-2.28;100.00;145706.53;5001137;28;20242;-64
2023/12/02 08:13:58;;;;;;;22.07;10.03;;;;;;;-2.31;100.00;145697.88;5003538;28;20527;-63
2023/12/02 08:16:25;;;;;;;18.10;9.53;;;;;;;-2.39;100.00;145680.59;5002423;28;20239;-63
2023/12/02 08:18:51;;;;;;;17.80;9.87;;;;;;;-2.42;100.00;145673.19;5005040;28;20239;-63
2023/12/02 08:21:18;;;;;;;17.20;9.47;;;;;;;-2.45;100.00;145664.59;5004191;28;20245;-63
2023/12/02 08:23:46;;;;;;;18.80;10.47;;;;;;;-2.45;100.00;145665.78;4998087;28;20586;-63
2023/12/02 08:26:13;;;;;;;17.10;9.10;;;;;;;-2.47;100.00;145660.84;5001684;28;20682;-63
2023/12/02 08:28:40;;;;;;;19.40;10.33;;;;;;;-2.42;100.00;145673.19;4988591;28;20249;-63
2023/12/02 08:31:07;;;;;;;18.37;9.97;;;;;;;-2.31;100.00;145697.88;5004656;28;20249;-63
2023/12/02 08:33:33;;;;;;;20.33;10.57;;;;;;;-2.37;100.00;145684.31;5001807;28;20694;-64
2023/12/02 08:36:00;;;;;;;21.93;11.17;;;;;;;-2.41;100.00;145674.47;5004897;28;20232;-63
2023/12/02 08:38:26;;;;;;;18.77;10.27;;;;;;;-2.42;100.00;145672.00;5002523;28;20222;-63
2023/12/02 08:40:54;;;;;;;21.97;11.37;;;;;;;-2.40;100.00;145678.13;5004243;28;20704;-64
2023/12/02 08:43:21;;;;;;;21.90;12.53;;;;;;;-2.41;100.00;145674.47;4999917;28;20227;-64
2023/12/02 08:45:48;;;;;;;18.90;10.03;;;;;;;-2.39;100.00;145680.59;5004522;28;20587;-63
2023/12/02 08:48:14;;;;;;;21.87;11.73;;;;;;;-2.45;100.00;145665.78;5003690;28;20240;-63
2023/12/02 08:50:41;;;;;;;141.97;75.40;;;;;;;-2.39;100.00;145680.59;4988159;28;20868;-63
2023/12/02 08:53:07;;;;;;;21.43;11.57;;;;;;;-2.37;100.00;145684.31;4995400;28;20274;-63
2023/12/02 08:55:34;;;;;;;20.17;10.43;;;;;;;-2.48;100.00;145657.19;4979984;28;20223;-63
2023/12/02 08:58:02;;;;;;;35.43;19.70;;;;;;;-2.45;100.00;145664.59;4989213;28;20234;-63
2023/12/02 09:00:29;;;;;;;21.03;10.60;;;;;;;-2.44;100.00;145668.25;5001565;28;20214;-63
2023/12/02 09:02:56;;;;;;;24.30;12.93;;;;;;;-2.38;100.00;145681.84;5003605;28;20227;-63
2023/12/02 09:05:22;;;;;;;22.03;11.77;;;;;;;-2.31;100.00;145697.88;5000823;28;20226;-63
2023/12/02 09:07:49;;;;;;;21.03;10.97;;;;;;;-2.48;100.00;145658.38;5004154;28;20313;-63
2023/12/02 09:10:16;;;;;;;19.17;11.40;;;;;;;-2.41;100.00;145675.66;5007971;28;20661;-63
2023/12/02 09:12:43;;;;;;;24.77;14.33;;;;;;;-2.39;100.00;145679.41;4997347;28;20243;-63
2023/12/02 09:15:37;;;;;;;21.13;10.63;;;;;;;-2.33;100.00;145694.19;5004192;28;20243;-63
2023/12/02 09:18:09;;;;;;;22.33;14.25;;;;;;;-2.29;100.00;145704.06;5004331;28;20453;-63
2023/12/02 09:20:45;;;;;;;18.57;11.23;;;;;;;-2.22;100.00;145720.09;5004723;28;20248;-63
2023/12/02 09:23:13;;;;;;;22.03;11.77;;;;;;;-2.36;100.00;145686.78;5008090;28;20224;-63
2023/12/02 09:25:41;;;;;;;16.17;9.60;;;;;;;-2.20;100.00;145723.81;5005602;28;20234;-63
2023/12/02 09:28:26;;;;;;;16.37;8.93;;;;;;;-2.44;100.00;145667.06;4987300;28;20297;-63
2023/12/02 09:30:58;;;;;;;18.07;10.60;;;;;;;-2.42;100.00;145672.00;5002792;28;20226;-63
2023/12/02 09:33:25;;;;;;;18.23;9.20;;;;;;;-2.33;100.00;145692.94;5003401;28;20238;-63
2023/12/02 09:35:55;;;;;;;17.20;8.57;;;;;;;-2.48;100.00;145657.19;5007203;28;20243;-63
2023/12/02 09:38:22;;;;;;;15.17;8.53;;;;;;;-2.39;100.00;145679.41;5002717;28;20615;-63
2023/12/02 09:41:13;;;;;;;21.43;11.83;;;;;;;-2.41;100.00;145675.66;5006269;28;20296;-63
2023/12/02 09:43:54;;;;;;;15.93;8.70;;;;;;;-2.43;100.00;145669.53;5003684;28;20235;-63
2023/12/02 09:46:29;;;;;;;20.98;13.13;;;;;;;-2.65;100.00;145616.50;5003348;28;20458;-63
2023/12/02 09:49:28;;;;;;;18.20;9.13;;;;;;;-2.48;100.00;145657.19;5005284;28;20234;-63
2023/12/02 09:52:16;;;;;;;15.87;9.03;;;;;;;-2.55;100.00;145642.38;4996573;28;20244;-63
2023/12/02 09:54:53;;;;;;;15.77;9.20;;;;;;;-2.47;100.00;145660.84;5004459;28;20594;-63
2023/12/02 09:57:33;;;;;;;19.37;10.87;;;;;;;-2.50;100.00;145653.44;5006616;28;20243;-63
2023/12/02 10:00:09;;;;;;;15.87;9.43;;;;;;;-2.43;100.00;145670.72;5003291;28;20605;-63
2023/12/02 10:02:50;;;;;;;15.30;8.33;;;;;;;-2.49;100.00;145654.72;4976136;28;20231;-63
2023/12/02 10:05:17;;;;;;;15.00;8.20;;;;;;;-2.46;100.00;145663.31;5007111;28;20705;-63
2023/12/02 10:08:00;;;;;;;14.93;8.70;;;;;;;-2.44;100.00;145667.06;5004019;28;20705;-63
2023/12/02 10:10:30;;;;;;;15.67;8.70;;;;;;;-2.56;100.00;145639.91;5004005;28;20215;-63
2023/12/02 10:13:12;;;;;;;13.30;8.20;;;;;;;-2.41;100.00;145674.47;5006704;28;20238;-63
2023/12/02 10:15:41;;;;;;;15.60;8.13;;;;;;;-2.35;100.00;145689.25;5002932;28;20218;-63
2023/12/02 10:18:12;;;;;;;14.67;7.90;;;;;;;-2.56;100.00;145639.91;5006284;28;20261;-63
2023/12/02 10:20:41;;;;;;;14.73;8.00;;;;;;;-2.38;100.00;145681.84;5003087;28;20274;-63
2023/12/02 10:23:17;;;;;;;14.67;7.67;;;;;;;-2.42;100.00;145673.19;5005989;28;20237;-63
2023/12/02 10:25:56;;;;;;;13.40;7.43;;;;;;;-2.29;100.00;145704.06;5003816;28;20292;-63
2023/12/02 10:28:32;;;;;;;12.93;7.47;;;;;;;-2.33;100.00;145692.94;5003834;28;20227;-63
2023/12/02 10:31:05;;;;;;;14.73;7.97;;;;;;;-2.45;100.00;145665.78;5006395;28;20259;-63
2023/12/02 10:33:39;;;;;;;13.27;6.17;;;;;;;-2.56;100.00;145638.66;5003262;28;20231;-63
2023/12/02 10:36:11;;;;;;;12.10;7.37;;;;;;;-2.42;100.00;145673.19;5006662;28;20238;-63
2023/12/02 10:39:02;;;;;;;13.47;8.07;;;;;;;-2.38;100.00;145681.84;5003715;28;20225;-63
2023/12/02 10:41:36;;;;;;;15.03;7.87;;;;;;;-2.18;100.00;145728.75;5002942;28;20222;-63
2023/12/02 10:44:05;;;;;;;12.77;7.77;;;;;;;-2.14;100.00;145738.63;5006425;28;20239;-63
2023/12/02 10:46:33;;;;;;;323.08;138.15;;;;;;;-2.33;99.93;145694.19;5003205;28;20431;-63
2023/12/02 10:49:03;;;;;;;28.90;15.97;;;;;;;-2.17;100.00;145731.22;5006358;28;20314;-63
2023/12/02 10:51:33;;;;;;;15.87;8.90;;;;;;;-2.14;100.00;145738.63;5003403;28;20714;-63
2023/12/02 10:54:05;;;;;;;246.43;78.90;;;;;;;-2.11;99.98;145747.25;5006197;28;20294;-63
2023/12/02 10:56:35;;;;;;;16.13;10.37;;;;;;;-2.01;98.78;145769.47;5002401;28;20225;-63
2023/12/02 10:59:03;;;;;;;14.07;7.57;;;;;;;-2.06;97.60;145757.13;5006054;28;20263;-63
2023/12/02 11:01:37;;;;;;;17.63;11.40;;;;;;;-2.10;99.62;145749.72;5003456;28;20255;-63
2023/12/02 11:04:14;;;;;;;27.53;19.93;;;;;;;-1.99;100.00;145775.59;5004215;28;20281;-63
2023/12/02 11:06:44;;;;;;;31.10;20.63;;;;;;;-2.16;99.73;145733.69;5002692;28;20584;-63
2023/12/02 11:09:17;;;;;;;16.03;8.80;;;;;;;-2.03;99.21;145765.72;5005845;28;20264;-63
2023/12/02 11:11:55;;;;;;;14.97;8.93;;;;;;;-1.99;99.03;145774.41;4996081;28;20603;-64